Time;durP1;ratioP1;P1;durP2;ratioP2;P2;SDS_P1;SDS_P2;PMS_P1;PMS_P2;Temp;Humidity;BMP_temperature;BMP_pressure;BME280_temperature;BME280_humidity;BME280_pressure;Samples;Min_cycle;Max_cycle;Signal;HPM_P1;HPM_P2
2023/08/01 00:00:56;;;;;;;3.90;2.20;;;;;;;19.16;73.98;98110.78;4992002;28;20047;-77
2023/08/01 00:03:23;;;;;;;2.75;2.40;;;;;;;19.16;74.16;98109.94;4991754;28;20097;-77
2023/08/01 00:05:50;;;;;;;3.25;2.20;;;;;;;19.16;73.98;98101.94;4992006;28;20494;-75
2023/08/01 00:08:16;;;;;;;4.03;2.10;;;;;;;19.14;74.05;98102.94;4991961;28;20088;-76
2023/08/01 00:10:43;;;;;;;2.47;2.08;;;;;;;19.14;74.09;98097.63;4991979;28;20050;-77
2023/08/01 00:13:11;;;;;;;2.88;2.40;;;;;;;19.13;74.38;98095.97;4991931;28;20050;-76
2023/08/01 00:15:38;;;;;;;3.08;2.38;;;;;;;19.13;74.16;98090.63;4991281;28;20109;-76
2023/08/01 00:18:07;;;;;;;2.35;2.05;;;;;;;19.13;74.44;98093.31;4991712;28;20509;-77
2023/08/01 00:20:33;;;;;;;3.40;2.17;;;;;;;19.14;74.28;98086.16;4974799;28;20042;-76
2023/08/01 00:23:00;;;;;;;2.50;2.20;;;;;;;19.14;74.57;98089.63;4991884;28;20061;-76
2023/08/01 00:25:27;;;;;;;3.60;2.13;;;;;;;19.16;74.60;98093.94;4991445;28;20046;-75
2023/08/01 00:27:53;;;;;;;4.72;2.20;;;;;;;19.15;74.42;98082.47;4991811;28;20057;-76
2023/08/01 00:30:20;;;;;;;2.38;2.00;;;;;;;19.16;74.62;98081.44;4991820;28;20058;-76
2023/08/01 00:32:47;;;;;;;2.88;2.00;;;;;;;19.16;74.50;98078.78;4991772;28;20093;-75
2023/08/01 00:35:14;;;;;;;2.60;2.28;;;;;;;19.16;74.33;98078.78;4991369;28;20079;-75
2023/08/01 00:37:40;;;;;;;3.33;2.20;;;;;;;19.17;74.59;98071.59;4991570;28;20051;-76
2023/08/01 00:40:07;;;;;;;4.78;2.40;;;;;;;19.17;74.56;98063.59;4991391;28;20057;-76
2023/08/01 00:42:37;;;;;;;2.60;2.08;;;;;;;19.16;74.43;98062.78;4991780;28;20046;-77
2023/08/01 00:45:05;;;;;;;2.35;2.15;;;;;;;19.16;74.13;98046.78;4990863;28;20054;-77
2023/08/01 00:47:31;;;;;;;3.17;2.78;;;;;;;19.17;74.29;98042.28;4991370;28;20050;-77
2023/08/01 00:49:58;;;;;;;1.90;1.80;;;;;;;19.18;74.10;98046.59;4991487;28;20053;-76
2023/08/01 00:52:26;;;;;;;2.35;2.15;;;;;;;19.17;74.11;98039.59;4991474;28;20046;-76
2023/08/01 00:54:53;;;;;;;4.28;2.42;;;;;;;19.16;74.17;98040.59;4990998;28;20658;-76
2023/08/01 00:57:20;;;;;;;3.50;2.30;;;;;;;19.15;74.09;98050.44;4991490;28;20050;-77
2023/08/01 00:59:46;;;;;;;4.05;2.28;;;;;;;19.15;73.83;98039.78;4991331;28;20050;-77
2023/08/01 01:02:13;;;;;;;3.28;1.88;;;;;;;19.14;74.29;98040.81;4991334;28;20490;-76
2023/08/01 01:04:40;;;;;;;2.25;2.05;;;;;;;19.13;73.84;98037.31;4991359;28;20054;-77
2023/08/01 01:07:07;;;;;;;4.15;2.67;;;;;;;19.13;73.97;98042.63;4991028;28;20125;-76
2023/08/01 01:09:33;;;;;;;2.63;2.28;;;;;;;19.13;73.68;98033.78;4991359;28;20062;-76
2023/08/01 01:12:00;;;;;;;3.70;2.33;;;;;;;19.12;73.85;98032.16;4973787;28;20128;-77
2023/08/01 01:14:27;;;;;;;2.53;2.33;;;;;;;19.11;73.63;98033.16;4991063;28;20046;-77
2023/08/01 01:16:55;;;;;;;3.58;2.85;;;;;;;19.10;74.03;98031.53;4991154;28;20046;-77
2023/08/01 01:19:22;;;;;;;2.92;2.63;;;;;;;19.09;73.81;98024.50;4991046;28;20069;-76
2023/08/01 01:22:16;;;;;;;2.92;2.33;;;;;;;19.03;74.41;98031.41;4974153;28;20054;-76
2023/08/01 01:24:45;;;;;;;3.42;2.05;;;;;;;19.07;73.60;98014.06;4991133;28;20517;-77
2023/08/01 01:27:12;;;;;;;2.58;2.38;;;;;;;19.06;73.65;98017.72;4991093;28;20050;-77
2023/08/01 01:29:42;;;;;;;3.70;2.65;;;;;;;19.06;73.91;98006.25;4990916;28;20046;-76
2023/08/01 01:32:09;;;;;;;3.33;2.67;;;;;;;19.05;73.74;98004.53;4991167;28;20058;-76
2023/08/01 01:34:36;;;;;;;4.63;2.70;;;;;;;19.05;73.92;98001.88;4991080;28;20061;-77
2023/08/01 01:37:03;;;;;;;3.22;2.72;;;;;;;19.04;73.63;97989.56;4991148;28;20042;-76
2023/08/01 01:39:29;;;;;;;3.80;3.10;;;;;;;19.02;73.65;97995.91;4991259;28;20050;-76
2023/08/01 01:41:56;;;;;;;3.47;2.35;;;;;;;19.00;73.65;97995.25;4992845;28;20120;-76
2023/08/01 01:44:23;;;;;;;2.42;2.22;;;;;;;19.00;73.60;97986.44;4994400;28;20054;-77
2023/08/01 01:46:49;;;;;;;4.60;2.55;;;;;;;18.98;73.72;97972.44;4994838;28;20618;-76
2023/08/01 01:49:16;;;;;;;2.63;2.33;;;;;;;18.97;73.78;97978.81;4995088;28;20479;-77
2023/08/01 01:51:43;;;;;;;3.15;2.58;;;;;;;18.96;73.89;97985.16;4994726;28;20490;-77
2023/08/01 01:56:41;;;;;;;4.35;2.90;;;;;;;18.93;73.73;97962.38;4994624;28;20141;-77
2023/08/01 01:59:07;;;;;;;4.47;2.78;;;;;;;18.92;73.64;97967.88;4994663;28;20522;-77
2023/08/01 02:01:34;;;;;;;5.88;2.88;;;;;;;18.92;73.47;97970.53;4994568;28;20054;-76
2023/08/01 02:04:01;;;;;;;4.20;3.00;;;;;;;18.90;73.84;97965.38;4994971;28;20050;-77
2023/08/01 02:06:27;;;;;;;6.30;2.80;;;;;;;18.89;73.93;97950.41;4994497;28;20419;-76
2023/08/01 02:08:54;;;;;;;3.28;2.95;;;;;;;18.88;73.88;97949.56;4994502;28;20086;-77
2023/08/01 02:11:21;;;;;;;3.05;2.75;;;;;;;18.88;73.99;97948.78;4994466;28;20124;-76
2023/08/01 02:13:47;;;;;;;6.60;3.42;;;;;;;18.87;73.72;97945.25;4994279;28;20065;-76
2023/08/01 02:16:14;;;;;;;4.13;3.20;;;;;;;18.88;73.75;97943.44;5021407;22;20137;-83
2023/08/01 02:18:40;;;;;;;4.00;3.55;;;;;;;18.87;73.66;97933.75;4993787;28;20051;-81
2023/08/01 02:21:07;;;;;;;6.13;3.30;;;;;;;18.87;73.83;97937.28;4994487;28;20542;-81
2023/08/01 02:23:36;;;;;;;5.65;3.65;;;;;;;18.86;73.46;97924.97;4994629;28;20050;-80
2023/08/01 02:26:03;;;;;;;6.28;4.38;;;;;;;18.85;73.78;97925.97;4994637;28;20046;-81
2023/08/01 02:28:29;;;;;;;4.63;3.72;;;;;;;18.85;73.82;97919.81;4994455;28;20133;-83
2023/08/01 02:30:56;;;;;;;7.32;3.67;;;;;;;18.83;73.65;97920.00;4994651;28;20077;-81
2023/08/01 02:33:22;;;;;;;4.80;4.28;;;;;;;18.83;74.19;97924.50;4994096;28;20125;-83
2023/08/01 02:35:49;;;;;;;6.30;4.78;;;;;;;18.82;74.18;97920.19;4976519;28;20073;-82
2023/08/01 02:38:15;;;;;;;6.30;4.90;;;;;;;18.84;74.06;97928.81;4993890;28;20409;-82
2023/08/01 02:40:42;;;;;;;6.85;5.18;;;;;;;18.81;74.19;97924.69;4993907;28;20046;-83
2023/08/01 02:43:08;;;;;;;6.07;5.47;;;;;;;18.81;74.20;97932.69;4993735;28;20046;-83
2023/08/01 02:45:35;;;;;;;8.02;6.28;;;;;;;18.81;74.40;97938.03;4976225;28;20113;-82
2023/08/01 02:48:01;;;;;;;8.45;6.47;;;;;;;18.81;74.24;97934.53;4976262;28;20446;-83
2023/08/01 02:50:28;;;;;;;7.07;6.15;;;;;;;18.81;74.17;97942.53;4993705;28;20042;-82
2023/08/01 02:52:54;;;;;;;9.98;6.63;;;;;;;18.79;74.18;97937.38;4993663;28;20042;-82
2023/08/01 02:55:21;;;;;;;7.75;5.82;;;;;;;18.79;74.54;97929.38;4993476;28;20054;-82
2023/08/01 02:57:47;;;;;;;6.80;5.57;;;;;;;18.79;74.42;97937.38;4993539;28;20069;-83
2023/08/01 03:00:14;;;;;;;7.90;5.68;;;;;;;18.79;74.39;97937.38;4993429;28;20054;-82
2023/08/01 03:02:40;;;;;;;8.82;5.72;;;;;;;18.78;74.58;97941.06;4993216;28;20058;-82
2023/08/01 03:05:08;;;;;;;5.97;5.32;;;;;;;18.79;74.33;97934.72;4993114;28;20141;-82
2023/08/01 03:07:34;;;;;;;6.22;5.57;;;;;;;18.78;74.40;97938.38;4993352;28;20054;-82
2023/08/01 03:10:02;;;;;;;8.23;5.82;;;;;;;18.78;74.41;97943.72;4993551;28;20093;-82
2023/08/01 03:12:28;;;;;;;5.68;5.07;;;;;;;18.78;74.30;97940.22;4993521;28;20042;-83
2023/08/01 03:14:55;;;;;;;7.07;5.95;;;;;;;18.77;74.12;97939.41;4992733;28;20050;-82
2023/08/01 03:17:22;;;;;;;8.85;5.85;;;;;;;18.74;74.36;97932.63;4993511;28;20062;-83
2023/08/01 03:19:49;;;;;;;6.30;5.70;;;;;;;18.73;74.13;97935.47;4993381;28;20478;-82
2023/08/01 03:22:16;;;;;;;7.00;5.57;;;;;;;18.72;73.99;97936.44;4993225;28;20050;-82
2023/08/01 03:24:43;;;;;;;10.43;5.97;;;;;;;18.71;74.45;97938.31;4992929;28;20058;-82
2023/08/01 03:27:09;;;;;;;10.20;6.72;;;;;;;18.70;74.19;97931.34;4975687;28;20058;-82
2023/08/01 03:29:36;;;;;;;7.82;7.05;;;;;;;18.71;74.56;97937.47;4993041;28;20101;-83
2023/08/01 03:32:03;;;;;;;8.27;6.82;;;;;;;18.71;74.38;97932.97;4993286;28;20054;-82
2023/08/01 03:34:29;;;;;;;10.40;6.97;;;;;;;18.72;74.64;97949.78;4992722;28;20054;-82
2023/08/01 03:36:56;;;;;;;9.02;7.53;;;;;;;18.71;74.63;97948.97;4975389;28;20049;-83
2023/08/01 03:39:22;;;;;;;10.00;7.53;;;;;;;18.72;74.72;97950.63;4975569;28;20082;-82
2023/08/01 03:41:49;;;;;;;10.02;8.32;;;;;;;18.72;74.26;97955.09;4992712;28;20050;-83
2023/08/01 03:44:16;;;;;;;11.82;8.75;;;;;;;18.73;74.36;97957.59;4992422;28;20061;-82
2023/08/01 03:46:43;;;;;;;13.38;8.18;;;;;;;18.74;74.42;97963.75;4992769;28;20046;-83
2023/08/01 03:49:10;;;;;;;7.65;6.85;;;;;;;18.74;74.55;97953.09;4992895;28;20053;-82
2023/08/01 03:51:36;;;;;;;8.55;7.63;;;;;;;18.75;74.66;97954.75;4992706;28;20465;-83
2023/08/01 03:54:03;;;;;;;12.38;8.15;;;;;;;18.76;74.70;97948.41;4992690;28;20046;-82
2023/08/01 03:56:42;;;;;;;11.00;7.80;;;;;;;18.77;74.42;97962.56;4992175;28;20057;-82
2023/08/01 03:59:16;;;;;;;9.85;7.38;;;;;;;18.74;74.80;97953.94;4992789;28;20089;-83
2023/08/01 04:01:42;;;;;;;;;;;;;;;18.77;74.64;97954.56;4992964;28;20097;-83
2023/08/01 04:04:09;;;;;;;9.13;7.43;;;;;;;18.83;73.96;97953.81;4992120;28;19968;-82
2023/08/01 04:06:36;;;;;;;10.95;7.45;;;;;;;18.80;74.23;97952.34;4992013;28;20046;-82
2023/08/01 04:09:02;;;;;;;10.75;7.53;;;;;;;18.78;74.10;97943.72;4992504;28;20046;-82
2023/08/01 04:11:29;;;;;;;13.05;7.68;;;;;;;18.77;74.36;97957.22;4992231;28;20108;-82
2023/08/01 04:13:56;;;;;;;10.35;7.57;;;;;;;18.74;74.44;97951.28;4975150;28;20046;-81
2023/08/01 04:16:23;;;;;;;14.63;7.90;;;;;;;18.74;74.68;97953.09;4991406;28;20054;-82
2023/08/01 04:18:49;;;;;;;11.05;7.65;;;;;;;18.72;74.68;97955.94;4992032;28;20113;-82
2023/08/01 04:21:16;;;;;;;13.02;7.55;;;;;;;18.72;74.37;97949.78;4992113;28;20108;-82
2023/08/01 04:23:42;;;;;;;11.73;7.90;;;;;;;18.71;74.54;97954.28;4991961;28;20082;-82
2023/08/01 04:26:09;;;;;;;10.23;7.60;;;;;;;18.72;74.52;97960.44;4991728;28;20130;-82
2023/08/01 04:28:35;;;;;;;10.05;7.30;;;;;;;18.70;74.37;97957.97;4991474;28;20053;-81
2023/08/01 04:31:02;;;;;;;14.52;7.25;;;;;;;18.71;74.88;97964.13;4991713;28;20043;-82
2023/08/01 04:33:29;;;;;;;11.50;7.30;;;;;;;18.70;74.48;97967.81;4991497;28;20116;-82
2023/08/01 04:35:55;;;;;;;11.55;7.05;;;;;;;18.69;74.62;97953.63;4991513;28;20136;-82
2023/08/01 04:38:22;;;;;;;11.77;7.63;;;;;;;18.69;74.43;97958.97;4991516;28;20521;-82
2023/08/01 04:40:48;;;;;;;11.57;6.60;;;;;;;18.69;74.56;97966.97;4974510;28;20065;-82
2023/08/01 04:43:15;;;;;;;15.73;6.90;;;;;;;18.70;74.74;97967.81;4991756;28;20046;-82
2023/08/01 04:45:41;;;;;;;9.73;6.57;;;;;;;18.70;74.56;97962.47;4991379;28;20549;-82
2023/08/01 04:48:08;;;;;;;12.23;6.28;;;;;;;18.70;74.44;97962.47;4991515;28;20081;-82
2023/08/01 04:50:34;;;;;;;11.80;6.40;;;;;;;18.68;74.42;97960.00;4991291;28;20054;-83
2023/08/01 04:53:01;;;;;;;10.90;6.47;;;;;;;18.68;74.43;97961.81;4991452;28;20136;-82
2023/08/01 04:55:27;;;;;;;9.55;6.20;;;;;;;18.68;74.37;97964.47;4991204;28;20057;-82
2023/08/01 04:57:54;;;;;;;10.95;6.85;;;;;;;18.66;74.40;97970.03;4991447;28;20058;-82
2023/08/01 05:00:20;;;;;;;12.38;6.10;;;;;;;18.65;73.96;97964.88;4991279;28;20042;-82
2023/08/01 05:02:47;;;;;;;13.50;6.75;;;;;;;18.63;73.90;97967.72;4991860;28;20050;-82
2023/08/01 05:05:15;;;;;;;14.20;6.97;;;;;;;18.62;73.95;97972.19;4991320;28;20064;-82
2023/08/01 05:07:42;;;;;;;11.85;6.85;;;;;;;18.61;74.22;97975.06;4991663;28;20108;-82
2023/08/01 05:10:09;;;;;;;10.43;6.32;;;;;;;18.57;74.01;97974.59;4991278;28;20105;-82
2023/08/01 05:12:36;;;;;;;10.77;6.47;;;;;;;18.56;73.95;97966.78;4991304;28;20482;-83
2023/08/01 05:15:03;;;;;;;15.00;6.15;;;;;;;18.54;74.25;97974.97;4973836;28;20100;-81
2023/08/01 05:17:29;;;;;;;12.63;6.00;;;;;;;18.52;74.51;97965.50;4994452;28;20085;-82
2023/08/01 05:19:56;;;;;;;10.43;6.00;;;;;;;18.51;74.19;97975.34;4994983;28;20053;-82
2023/08/01 05:22:23;;;;;;;14.68;6.53;;;;;;;18.51;74.28;97974.50;4977886;28;20046;-83
2023/08/01 05:24:49;;;;;;;12.00;5.90;;;;;;;18.50;74.10;97973.66;4995213;28;20050;-82
2023/08/01 05:27:16;;;;;;;11.98;5.85;;;;;;;18.49;74.66;97977.34;4995126;28;20077;-82
2023/08/01 05:29:42;;;;;;;9.55;6.28;;;;;;;18.49;74.36;97974.69;4994997;28;20062;-82
2023/08/01 05:32:09;;;;;;;19.40;6.50;;;;;;;18.48;74.28;97978.38;4995149;28;20050;-82
2023/08/01 05:34:36;;;;;;;9.68;5.97;;;;;;;18.48;74.11;97973.03;4977643;28;20137;-82
2023/08/01 05:37:02;;;;;;;15.32;6.50;;;;;;;18.49;74.39;97982.69;4994912;28;20056;-82
2023/08/01 05:39:29;;;;;;;11.38;5.80;;;;;;;18.48;74.31;97983.69;4994810;28;20050;-83
2023/08/01 05:41:55;;;;;;;11.15;5.95;;;;;;;18.48;74.49;97986.34;4994762;28;20058;-82
2023/08/01 05:44:22;;;;;;;11.27;6.40;;;;;;;18.47;74.50;97980.19;4994736;28;20443;-82
2023/08/01 05:46:48;;;;;;;13.93;6.20;;;;;;;18.46;74.08;97983.88;4994277;28;20057;-81
2023/08/01 05:49:15;;;;;;;12.38;6.85;;;;;;;18.45;74.09;97984.88;4994580;28;20054;-82
2023/08/01 05:51:42;;;;;;;11.57;6.18;;;;;;;18.45;74.17;97987.56;4994343;28;20502;-82
2023/08/01 05:54:08;;;;;;;12.20;6.05;;;;;;;18.45;74.43;97984.06;4994003;28;20065;-81
2023/08/01 05:56:35;;;;;;;15.10;7.03;;;;;;;18.45;74.38;97987.56;4992901;28;20136;-81
2023/08/01 05:59:02;;;;;;;9.48;6.25;;;;;;;18.46;74.67;97999.03;4994625;28;20137;-81
2023/08/01 06:01:28;;;;;;;12.38;6.47;;;;;;;18.47;74.43;98006.03;4994343;28;20466;-81
2023/08/01 06:03:55;;;;;;;21.67;7.35;;;;;;;18.48;74.79;98005.00;4994695;28;20058;-81
2023/08/01 06:06:21;;;;;;;17.77;7.18;;;;;;;18.49;74.67;98001.31;4994271;28;20500;-81
2023/08/01 06:08:48;;;;;;;13.13;7.43;;;;;;;18.49;74.52;98007.50;4994334;28;20053;-81
2023/08/01 06:11:15;;;;;;;13.98;6.88;;;;;;;18.51;74.50;98011.81;4994034;28;20046;-81
2023/08/01 06:13:41;;;;;;;10.38;6.97;;;;;;;18.51;74.55;98012.66;4994383;28;20058;-81
2023/08/01 06:16:08;;;;;;;11.90;7.05;;;;;;;18.53;74.69;98009.78;4993933;28;20058;-81
2023/08/01 06:18:34;;;;;;;14.48;6.88;;;;;;;18.53;74.95;98020.44;4993707;28;20054;-81
2023/08/01 06:21:02;;;;;;;13.18;7.15;;;;;;;18.55;74.65;98013.09;4993512;28;20414;-81
2023/08/01 06:23:29;;;;;;;14.65;6.57;;;;;;;18.56;74.72;98015.59;4993953;28;20046;-81
2023/08/01 06:25:55;;;;;;;9.93;6.10;;;;;;;18.57;74.52;98013.72;4976789;28;20096;-81
2023/08/01 06:28:22;;;;;;;9.20;6.22;;;;;;;18.57;74.41;98011.91;4992727;28;20101;-81
2023/08/01 06:30:48;;;;;;;13.00;6.63;;;;;;;18.59;74.51;98011.72;4993973;28;20554;-80
2023/08/01 06:33:15;;;;;;;12.18;5.90;;;;;;;18.60;74.58;98010.72;4993680;28;20132;-81
2023/08/01 06:35:41;;;;;;;10.02;5.72;;;;;;;18.61;74.24;98007.88;4993928;28;20053;-80
2023/08/01 06:38:08;;;;;;;9.73;5.90;;;;;;;18.62;74.02;98014.03;4993782;28;20051;-80
2023/08/01 06:40:35;;;;;;;11.75;5.43;;;;;;;18.60;73.85;98008.03;4993898;28;20145;-81
2023/08/01 06:43:01;;;;;;;10.45;5.95;;;;;;;18.58;73.84;98010.88;4993613;28;20050;-81
2023/08/01 06:45:28;;;;;;;9.25;5.45;;;;;;;18.57;73.59;98011.91;4993456;28;20054;-81
2023/08/01 06:47:55;;;;;;;8.65;5.45;;;;;;;18.56;73.85;98015.59;4993579;28;20050;-80
2023/08/01 06:50:21;;;;;;;10.43;6.03;;;;;;;18.54;73.77;98016.78;4993681;28;20046;-80
2023/08/01 06:52:48;;;;;;;9.73;6.75;;;;;;;18.52;74.10;98008.97;4975983;28;20046;-80
2023/08/01 06:55:14;;;;;;;8.77;5.43;;;;;;;18.52;74.32;98019.63;4993280;28;20137;-80
2023/08/01 06:57:41;;;;;;;7.45;5.50;;;;;;;18.52;74.11;98024.13;4993417;28;20097;-80
2023/08/01 07:00:08;;;;;;;12.88;6.25;;;;;;;18.53;74.05;98025.75;4993401;28;20054;-80
2023/08/01 07:02:35;;;;;;;9.68;5.72;;;;;;;18.53;74.12;98026.59;4993244;28;20533;-80
2023/08/01 07:05:02;;;;;;;13.65;5.60;;;;;;;18.53;74.07;98029.25;4993393;28;20056;-81
2023/08/01 07:07:29;;;;;;;9.57;5.35;;;;;;;18.53;74.06;98025.75;4993244;28;20133;-80
2023/08/01 07:09:55;;;;;;;8.43;5.10;;;;;;;18.53;74.08;98034.59;4993390;28;20051;-81
2023/08/01 07:12:22;;;;;;;7.70;4.78;;;;;;;18.54;73.69;98027.44;4993314;28;20641;-81
2023/08/01 07:14:48;;;;;;;8.65;4.70;;;;;;;18.54;74.07;98038.09;4992648;28;20038;-80
2023/08/01 07:17:15;;;;;;;8.30;4.70;;;;;;;18.55;74.17;98055.72;4992734;28;20277;-80
2023/08/01 07:19:41;;;;;;;7.43;4.35;;;;;;;18.54;74.13;98057.56;4993349;28;20066;-80
2023/08/01 07:22:08;;;;;;;6.43;4.68;;;;;;;18.53;73.91;98053.25;4993144;28;20055;-80
2023/08/01 07:24:35;;;;;;;15.63;4.47;;;;;;;18.53;73.61;98055.06;4992812;28;20475;-80
2023/08/01 07:27:02;;;;;;;6.90;4.30;;;;;;;18.51;73.85;98057.94;4992735;28;20046;-80
2023/08/01 07:29:28;;;;;;;7.68;4.53;;;;;;;18.48;73.99;98050.31;4975918;28;20051;-80
2023/08/01 07:31:55;;;;;;;8.63;4.32;;;;;;;18.47;74.13;98043.31;4992868;28;20058;-80
2023/08/01 07:34:22;;;;;;;5.85;4.05;;;;;;;18.47;73.99;98053.97;4992892;28;20110;-80
2023/08/01 07:36:49;;;;;;;11.50;4.20;;;;;;;18.46;74.27;98050.47;4992573;28;20050;-80
2023/08/01 07:39:16;;;;;;;7.50;4.32;;;;;;;18.48;74.27;98044.97;4991853;28;20064;-80
2023/08/01 07:41:42;;;;;;;9.20;4.40;;;;;;;18.51;74.70;98046.44;4992482;28;20483;-81
2023/08/01 07:44:09;;;;;;;8.68;4.35;;;;;;;18.55;74.90;98040.59;4991985;28;20479;-80
2023/08/01 07:46:35;;;;;;;8.60;4.43;;;;;;;18.61;75.31;98047.84;4991873;28;20050;-81
2023/08/01 07:49:02;;;;;;;8.68;4.35;;;;;;;18.69;75.59;98030.13;4992550;28;20101;-80
2023/08/01 07:51:29;;;;;;;7.82;3.97;;;;;;;18.75;75.07;98029.38;4992554;28;20089;-80
2023/08/01 07:53:57;;;;;;;7.88;4.35;;;;;;;18.84;75.05;98035.44;4984409;28;20061;-80
2023/08/01 07:56:23;;;;;;;11.43;4.47;;;;;;;18.91;74.63;98031.03;4991935;28;20046;-81
2023/08/01 07:58:50;;;;;;;10.38;4.28;;;;;;;18.96;74.27;98031.31;4992324;28;20050;-81
2023/08/01 08:01:16;;;;;;;7.18;4.20;;;;;;;19.01;73.92;98030.75;4992507;28;20054;-80
2023/08/01 08:03:43;;;;;;;7.53;3.47;;;;;;;19.05;73.83;98025.88;4992251;28;20133;-81
2023/08/01 08:06:10;;;;;;;12.10;4.13;;;;;;;19.05;73.39;98024.06;4992116;28;20105;-80
2023/08/01 08:08:36;;;;;;;10.68;4.05;;;;;;;19.08;73.45;98031.69;4991996;28;20051;-80
2023/08/01 08:11:03;;;;;;;12.35;4.30;;;;;;;19.10;73.45;98035.00;4992481;28;20471;-80
2023/08/01 08:13:30;;;;;;;6.28;3.47;;;;;;;19.10;73.32;98036.84;4992179;28;20050;-81
2023/08/01 08:15:56;;;;;;;9.02;3.65;;;;;;;19.11;72.93;98046.50;5045838;23;20054;-78
2023/08/01 08:18:44;;;;;;;8.25;3.83;;;;;;;19.10;73.10;98053.66;4914867;29;20069;-78
2023/08/01 08:21:10;;;;;;;6.65;3.40;;;;;;;19.11;73.34;98049.16;4932341;29;20057;-77
2023/08/01 08:23:38;;;;;;;6.45;3.70;;;;;;;19.12;74.01;98053.47;4932245;29;20048;-77
2023/08/01 08:26:04;;;;;;;11.05;3.83;;;;;;;19.15;73.88;98055.78;4930834;29;20151;-77
2023/08/01 08:28:33;;;;;;;8.00;4.18;;;;;;;19.20;74.39;98049.88;4932394;29;20067;-78
2023/08/01 08:31:04;;;;;;;7.60;4.10;;;;;;;19.25;74.14;98056.31;4931857;29;20056;-77
2023/08/01 08:33:31;;;;;;;9.68;4.00;;;;;;;19.30;73.72;98055.78;4933952;29;20147;-78
2023/08/01 08:35:57;;;;;;;14.52;4.45;;;;;;;19.35;73.79;98061.38;4933259;29;20132;-77
2023/08/01 08:38:24;;;;;;;8.45;4.30;;;;;;;19.40;73.58;98055.50;4928866;29;20071;-78
2023/08/01 08:41:08;;;;;;;10.98;4.18;;;;;;;19.44;74.04;98047.94;4933829;29;20056;-78
2023/08/01 08:43:35;;;;;;;8.65;4.07;;;;;;;19.54;74.50;98043.09;4932769;29;20059;-78
2023/08/01 08:46:04;;;;;;;8.38;4.13;;;;;;;19.63;74.53;98049.16;4933420;29;20056;-77
2023/08/01 08:48:33;;;;;;;12.20;5.10;;;;;;;19.72;74.13;98050.69;4933591;29;20087;-77
2023/08/01 08:51:05;;;;;;;11.45;4.15;;;;;;;19.82;73.55;98046.88;4933322;29;20054;-77
2023/08/01 08:53:34;;;;;;;9.77;4.33;;;;;;;19.89;73.60;98042.44;4933828;29;20044;-78
2023/08/01 08:56:02;;;;;;;9.20;4.22;;;;;;;19.96;73.79;98045.19;4933086;29;20459;-77
2023/08/01 08:58:31;;;;;;;5.97;3.85;;;;;;;20.04;74.01;98042.41;4933054;29;20061;-77
2023/08/01 09:01:00;;;;;;;6.35;3.70;;;;;;;20.14;74.24;98047.41;4933593;29;20416;-78
2023/08/01 09:03:28;;;;;;;7.93;4.07;;;;;;;20.27;74.24;98036.03;4933391;29;20060;-78
2023/08/01 09:06:04;;;;;;;7.63;3.65;;;;;;;20.39;72.74;98039.84;4933024;29;20047;-78
2023/08/01 09:08:34;;;;;;;11.60;3.47;;;;;;;20.54;73.16;98044.25;4932237;29;20059;-77
2023/08/01 09:11:01;;;;;;;4.85;3.40;;;;;;;20.65;72.40;98049.06;4932583;29;20107;-77
2023/08/01 09:13:28;;;;;;;8.75;3.47;;;;;;;20.73;71.59;98049.91;4933591;29;20060;-78
2023/08/01 09:15:56;;;;;;;7.90;4.10;;;;;;;20.75;70.21;98054.03;4933123;29;20563;-77
2023/08/01 09:18:23;;;;;;;8.15;3.38;;;;;;;20.77;70.40;98056.53;4933665;29;20055;-78
2023/08/01 09:20:49;;;;;;;10.25;3.45;;;;;;;20.74;70.38;98046.25;4933380;29;20051;-77
2023/08/01 09:23:17;;;;;;;10.05;3.30;;;;;;;20.71;70.08;98047.47;4933620;29;20079;-77
2023/08/01 09:25:44;;;;;;;10.00;3.50;;;;;;;20.67;69.89;98051.53;4933350;29;20118;-78
2023/08/01 09:28:19;;;;;;;8.25;3.28;;;;;;;20.61;69.40;98045.13;4933265;29;20420;-77
2023/08/01 09:30:55;;;;;;;7.63;3.40;;;;;;;20.54;69.18;98050.44;4933410;29;20464;-78
2023/08/01 09:33:22;;;;;;;7.43;3.47;;;;;;;20.54;69.65;98052.25;4933561;29;20063;-77
2023/08/01 09:35:49;;;;;;;7.28;3.50;;;;;;;20.49;70.07;98052.03;4933069;29;20048;-78
2023/08/01 09:38:16;;;;;;;9.55;3.70;;;;;;;20.46;70.75;98047.91;4933287;29;20056;-77
2023/08/01 09:40:45;;;;;;;11.18;3.90;;;;;;;20.46;71.46;98049.72;4933239;29;20127;-77
2023/08/01 09:43:13;;;;;;;8.60;3.65;;;;;;;20.49;72.61;98044.84;4933148;29;20058;-78
2023/08/01 09:45:53;;;;;;;9.13;3.47;;;;;;;20.54;72.97;98045.09;4933178;29;20047;-77
2023/08/01 09:48:27;;;;;;;7.50;3.33;;;;;;;20.68;73.99;98042.50;4933231;29;20142;-78
2023/08/01 09:51:12;;;;;;;4.68;2.78;;;;;;;20.80;74.00;98034.75;4933078;29;20047;-78
2023/08/01 09:53:52;;;;;;;6.82;2.83;;;;;;;20.97;73.63;98037.94;4931803;29;20055;-78
2023/08/01 09:56:21;;;;;;;6.63;2.95;;;;;;;21.15;73.04;98041.97;4938746;29;20052;-78
2023/08/01 09:58:49;;;;;;;4.72;2.70;;;;;;;21.30;72.99;98047.19;4940519;29;20047;-77
2023/08/01 10:01:18;;;;;;;5.28;2.72;;;;;;;21.42;71.15;98032.19;4933042;29;20087;-78
2023/08/01 10:03:50;;;;;;;4.80;2.30;;;;;;;21.54;70.31;98034.28;4936138;29;20107;-78
2023/08/01 10:06:28;;;;;;;6.07;2.72;;;;;;;21.63;69.41;98033.06;4935450;29;20055;-78
2023/08/01 10:08:54;;;;;;;5.45;1.95;;;;;;;21.79;70.46;98025.72;4935010;29;20052;-77
2023/08/01 10:11:22;;;;;;;5.95;2.40;;;;;;;21.89;69.28;98034.19;4936285;29;20052;-78
2023/08/01 10:13:49;;;;;;;3.97;2.15;;;;;;;22.01;68.52;98029.03;4936312;29;20052;-77
2023/08/01 10:16:16;;;;;;;5.22;2.47;;;;;;;22.10;67.79;98027.00;4935812;29;20166;-78
2023/08/01 10:18:43;;;;;;;5.97;2.13;;;;;;;22.15;66.85;98027.19;4936298;29;20393;-78
2023/08/01 10:21:14;;;;;;;8.45;2.58;;;;;;;22.15;64.63;98034.41;4935850;29;20048;-77
2023/08/01 10:23:42;;;;;;;4.93;2.05;;;;;;;22.08;64.13;98035.22;4936329;29;20412;-77
2023/08/01 10:26:10;;;;;;;3.03;1.65;;;;;;;21.98;63.71;98051.69;4936226;29;20505;-75
2023/08/01 10:28:39;;;;;;;4.85;1.70;;;;;;;21.82;63.17;98047.56;4936355;29;20063;-77
2023/08/01 10:31:10;;;;;;;4.35;1.83;;;;;;;21.65;63.15;98056.97;4935807;29;20062;-77
2023/08/01 10:33:38;;;;;;;4.13;1.65;;;;;;;21.47;63.90;98048.47;4936264;29;20059;-77
2023/08/01 10:36:18;;;;;;;6.25;2.05;;;;;;;21.27;64.63;98045.72;4935402;29;20043;-77
2023/08/01 10:38:57;;;;;;;7.40;2.00;;;;;;;21.17;65.46;98051.44;4935849;29;20063;-78
2023/08/01 10:41:27;;;;;;;4.88;1.85;;;;;;;21.15;65.63;98047.31;4935596;29;20048;-78
2023/08/01 10:44:15;;;;;;;6.85;1.95;;;;;;;21.09;66.25;98049.75;4936108;29;20058;-77
2023/08/01 10:46:46;;;;;;;5.13;2.40;;;;;;;21.14;67.12;98049.16;4935650;29;20051;-77
2023/08/01 10:49:13;;;;;;;4.70;2.17;;;;;;;21.21;67.80;98049.19;4935829;29;20114;-77
2023/08/01 10:51:39;;;;;;;8.60;2.50;;;;;;;21.32;69.55;98026.38;4935498;29;20052;-77
2023/08/01 10:54:06;;;;;;;6.20;2.40;;;;;;;21.50;69.61;98052.59;4936024;29;20141;-77
2023/08/01 10:56:33;;;;;;;5.45;2.33;;;;;;;21.74;70.71;98053.09;4935225;29;20115;-78
2023/08/01 10:59:00;;;;;;;5.82;2.30;;;;;;;22.02;70.07;98053.97;4935674;29;20043;-77
2023/08/01 11:01:28;;;;;;;3.05;1.80;;;;;;;22.28;67.77;98050.50;4935220;29;20052;-77
2023/08/01 11:03:54;;;;;;;5.45;1.77;;;;;;;22.50;66.81;98059.13;4935643;29;20083;-77
2023/08/01 11:06:21;;;;;;;3.40;1.95;;;;;;;22.63;64.86;98062.88;4935317;29;20047;-77
2023/08/01 11:08:48;;;;;;;6.68;1.90;;;;;;;22.71;64.13;98061.81;4935208;29;20093;-78
2023/08/01 11:11:15;;;;;;;8.85;2.25;;;;;;;22.71;63.62;98054.63;4935256;29;20055;-78
2023/08/01 11:13:50;;;;;;;3.55;1.90;;;;;;;22.68;61.70;98062.25;4933514;29;20063;-78
2023/08/01 11:16:17;;;;;;;6.03;2.53;;;;;;;22.68;62.85;98078.34;4934865;29;20052;-78
2023/08/01 11:18:44;;;;;;;6.22;2.17;;;;;;;22.61;62.06;98081.03;4935068;29;20052;-78
2023/08/01 11:21:10;;;;;;;7.60;2.42;;;;;;;22.51;62.01;98103.69;4934912;29;20527;-76
2023/08/01 11:23:39;;;;;;;7.55;2.00;;;;;;;22.36;61.04;98103.06;4934983;29;20051;-77
2023/08/01 11:26:48;;;;;;;4.25;2.00;;;;;;;22.10;61.31;98110.06;4962269;23;20058;-76
2023/08/01 11:29:20;;;;;;;3.75;1.52;;;;;;;21.89;61.22;98113.69;4982351;23;20110;-77
2023/08/01 11:31:58;;;;;;;5.53;1.83;;;;;;;21.60;61.77;98114.63;4992948;28;20108;-76
2023/08/01 11:34:26;;;;;;;3.17;1.67;;;;;;;21.38;62.29;98124.59;4993186;28;20057;-77
2023/08/01 11:36:54;;;;;;;4.65;1.77;;;;;;;21.17;62.82;98126.38;4992036;28;20647;-76